createdAt,value
2022-09-25T00:01:11.044Z,99667.56
2022-09-25T00:03:39.251Z,99659.91
2022-09-25T00:06:15.040Z,99665.63
2022-09-25T00:08:43.297Z,99664.34
2022-09-25T00:11:18.345Z,99643.63
2022-09-25T00:13:50.034Z,99633.56
2022-09-25T00:16:20.752Z,99647.50
2022-09-25T00:19:07.547Z,99651.88
2022-09-25T00:21:35.853Z,99628.78
2022-09-25T00:24:06.467Z,99638.00
2022-09-25T00:26:37.421Z,99638.28
2022-09-25T00:29:06.374Z,99619.03
2022-09-25T00:31:34.380Z,99632.91
2022-09-25T00:34:03.921Z,99644.59
2022-09-25T00:36:32.860Z,99636.75
2022-09-25T00:39:00.826Z,99639.19
2022-09-25T00:41:32.077Z,99629.41
2022-09-25T00:44:02.460Z,99623.97
2022-09-25T00:46:38.496Z,99631.34
2022-09-25T00:49:16.733Z,99628.94
2022-09-25T00:51:54.627Z,99633.63
2022-09-25T00:54:37.057Z,99627.66
2022-09-25T00:57:10.820Z,99627.13
2022-09-25T00:59:41.637Z,99603.34
2022-09-25T01:02:14.440Z,99606.59
2022-09-25T01:04:46.262Z,99612.81
2022-09-25T01:07:15.085Z,99612.84
2022-09-25T01:09:42.479Z,99617.78
2022-09-25T01:12:09.917Z,99600.38
2022-09-25T01:14:39.521Z,99613.47
2022-09-25T01:17:23.240Z,99611.28
2022-09-25T01:20:39.780Z,99615.44
2022-09-25T01:23:44.081Z,99617.91
2022-09-25T01:26:15.595Z,99616.28
2022-09-25T01:29:14.759Z,99613.59
2022-09-25T01:31:54.191Z,99614.16
2022-09-25T01:34:32.483Z,99621.00
2022-09-25T01:37:13.803Z,99616.91
2022-09-25T01:39:47.264Z,99568.66
2022-09-25T01:42:23.139Z,99610.03
2022-09-25T01:44:57.971Z,99607.28
2022-09-25T01:47:28.994Z,99587.94
2022-09-25T01:50:00.541Z,99609.19
2022-09-25T01:52:40.878Z,99606.72
2022-09-25T01:55:24.059Z,99603.75
2022-09-25T01:58:05.736Z,99609.50
2022-09-25T02:00:38.064Z,99599.94
2022-09-25T02:03:18.366Z,99608.13
2022-09-25T02:05:57.552Z,99604.59
2022-09-25T02:08:34.223Z,99607.84
2022-09-25T02:11:04.717Z,99593.97
2022-09-25T02:13:50.657Z,99598.91
2022-09-25T02:16:23.221Z,99603.03
2022-09-25T02:19:20.577Z,99600.34
2022-09-25T02:22:07.373Z,99606.69
2022-09-25T02:24:45.558Z,99600.16
2022-09-25T02:27:15.562Z,99606.16
2022-09-25T02:29:43.351Z,99604.28
2022-09-25T02:32:13.652Z,99603.47
2022-09-25T02:34:41.877Z,99603.72
2022-09-25T02:37:14.495Z,99611.13
2022-09-25T02:39:44.986Z,99601.88
2022-09-25T02:42:29.031Z,99595.84
2022-09-25T02:45:02.500Z,99601.31
2022-09-25T02:47:43.588Z,99602.41
2022-09-25T02:50:26.734Z,99611.69
2022-09-25T02:53:15.280Z,99602.66
2022-09-25T02:56:04.685Z,99607.03
2022-09-25T02:58:40.988Z,99597.72
2022-09-25T03:01:12.680Z,99601.03
2022-09-25T03:03:41.460Z,99593.69
2022-09-25T03:06:10.546Z,99607.34
2022-09-25T03:08:42.518Z,99605.19
2022-09-25T03:11:16.253Z,99605.22
2022-09-25T03:13:44.807Z,99619.72
2022-09-25T03:16:31.480Z,99614.28
2022-09-25T03:19:02.226Z,99604.47
2022-09-25T03:21:29.940Z,99603.09
2022-09-25T03:23:57.198Z,99607.22
2022-09-25T03:26:25.476Z,99597.06
2022-09-25T03:28:53.645Z,99586.94
2022-09-25T03:31:21.794Z,99604.69
2022-09-25T03:33:49.393Z,99603.63
2022-09-25T03:36:20.830Z,99617.25
2022-09-25T03:38:57.958Z,99624.91
2022-09-25T03:41:28.142Z,99606.91
2022-09-25T03:43:56.759Z,99617.53
2022-09-25T03:46:29.684Z,99617.28
2022-09-25T03:48:57.263Z,99616.16
2022-09-25T03:51:25.804Z,99605.78
2022-09-25T03:53:53.829Z,99615.59
2022-09-25T03:56:24.472Z,99617.81
2022-09-25T03:58:56.474Z,99610.19
2022-09-25T04:01:25.032Z,99611.81
2022-09-25T04:03:53.417Z,99609.94
2022-09-25T04:06:24.502Z,99615.38
2022-09-25T04:08:53.836Z,99616.75
2022-09-25T04:11:25.075Z,99612.66
2022-09-25T04:13:53.044Z,99609.94
2022-09-25T04:16:23.991Z,99606.66
2022-09-25T04:18:51.810Z,99614.28
2022-09-25T04:21:19.269Z,99625.22
2022-09-25T04:24:07.476Z,99622.50
2022-09-25T04:26:35.834Z,99618.13
2022-09-25T04:29:04.474Z,99618.13
2022-09-25T04:31:32.689Z,99618.41
2022-09-25T04:34:00.473Z,99625.25
2022-09-25T04:36:27.967Z,99632.84
2022-09-25T04:38:56.719Z,99618.94
2022-09-25T04:41:24.783Z,99634.22
2022-09-25T04:43:52.311Z,99632.81
2022-09-25T04:46:22.596Z,99629.78
2022-09-25T04:48:50.896Z,99634.44
2022-09-25T04:51:19.421Z,99638.50
2022-09-25T04:53:47.559Z,99634.97
2022-09-25T04:56:16.634Z,99627.84
2022-09-25T04:58:46.567Z,99627.50
2022-09-25T05:01:14.083Z,99630.69
2022-09-25T05:03:41.760Z,99609.38
2022-09-25T05:06:09.895Z,99616.50
2022-09-25T05:08:37.520Z,99608.56
2022-09-25T05:11:05.088Z,99591.91
2022-09-25T05:13:32.366Z,99619.38
2022-09-25T05:15:59.906Z,99619.59
2022-09-25T05:18:27.859Z,99614.09
2022-09-25T05:20:55.411Z,99631.47
2022-09-25T05:23:24.880Z,99615.53
2022-09-25T05:26:02.671Z,99633.47
2022-09-25T05:28:34.490Z,99619.94
2022-09-25T05:31:04.018Z,99622.28
2022-09-25T05:33:33.463Z,99604.06
2022-09-25T05:36:02.586Z,99613.25
2022-09-25T05:38:32.871Z,99612.38
2022-09-25T05:41:05.199Z,99614.19
2022-09-25T05:43:34.177Z,99614.97
2022-09-25T05:46:01.921Z,99612.09
2022-09-25T05:48:29.250Z,99615.69
2022-09-25T05:50:57.651Z,99609.41
2022-09-25T05:53:25.350Z,99619.59
2022-09-25T05:56:00.374Z,99620.28
2022-09-25T05:58:29.482Z,99621.44
2022-09-25T06:01:00.928Z,99620.63
2022-09-25T06:03:30.700Z,99622.09
2022-09-25T06:06:01.722Z,99617.66
2022-09-25T06:08:32.891Z,99621.75
2022-09-25T06:11:03.687Z,99600.28
2022-09-25T06:13:33.240Z,99619.75
2022-09-25T06:16:01.200Z,99610.22
2022-09-25T06:18:28.517Z,99618.34
2022-09-25T06:21:04.726Z,99613.63
2022-09-25T06:23:32.483Z,99618.72
2022-09-25T06:26:04.271Z,99626.31
2022-09-25T06:28:32.609Z,99601.53
2022-09-25T06:31:01.782Z,99634.66
2022-09-25T06:33:29.327Z,99630.41
2022-09-25T06:35:56.535Z,99627.22
2022-09-25T06:38:24.421Z,99617.94
2022-09-25T06:40:51.681Z,99617.81
2022-09-25T06:43:18.990Z,99609.81
2022-09-25T06:45:47.945Z,99609.75
2022-09-25T06:48:18.150Z,99606.84
2022-09-25T06:50:52.888Z,99626.44
2022-09-25T06:53:21.730Z,99619.97
2022-09-25T06:55:49.730Z,99615.44
2022-09-25T06:58:20.628Z,99632.38
2022-09-25T07:00:52.187Z,99630.09
2022-09-25T07:03:37.965Z,99623.44
2022-09-25T07:06:07.531Z,99613.22
2022-09-25T07:08:35.038Z,99617.34
2022-09-25T07:11:02.414Z,99615.66
2022-09-25T07:13:32.163Z,99617.75
2022-09-25T07:16:08.560Z,99604.09
2022-09-25T07:18:35.828Z,99602.41
2022-09-25T07:21:05.976Z,99619.78
2022-09-25T07:23:33.959Z,99616.75
2022-09-25T07:26:13.845Z,99611.31
2022-09-25T07:28:42.555Z,99619.56
2022-09-25T07:31:21.704Z,99609.72
2022-09-25T07:33:49.498Z,99621.47
2022-09-25T07:36:17.970Z,99620.88
2022-09-25T07:38:50.014Z,99611.03
2022-09-25T07:41:18.590Z,99610.22
2022-09-25T07:44:18.104Z,99595.31
2022-09-25T07:46:46.894Z,99604.25
2022-09-25T07:49:14.356Z,99594.41
2022-09-25T07:51:41.697Z,99590.63
2022-09-25T07:54:09.176Z,99588.22
2022-09-25T07:56:38.468Z,99583.03
2022-09-25T07:59:06.020Z,99582.47
2022-09-25T08:01:33.332Z,99576.13
2022-09-25T08:04:01.803Z,99579.84
2022-09-25T08:06:29.133Z,99578.53
2022-09-25T08:08:56.514Z,99567.28
2022-09-25T08:11:23.958Z,99571.72
2022-09-25T08:13:51.450Z,99567.06
2022-09-25T08:16:20.877Z,99569.09
2022-09-25T08:18:49.697Z,99566.81
2022-09-25T08:21:21.177Z,99557.47
2022-09-25T08:23:53.778Z,99556.44
2022-09-25T08:26:22.203Z,99549.22
2022-09-25T08:28:52.187Z,99551.50
2022-09-25T08:31:20.115Z,99540.44
2022-09-25T08:34:40.445Z,99547.78
2022-09-25T08:37:10.266Z,99548.16
2022-09-25T08:39:37.703Z,99553.28
2022-09-25T08:42:05.310Z,99553.72
2022-09-25T08:45:19.455Z,99544.03
2022-09-25T08:48:00.275Z,99537.63
2022-09-25T08:50:29.901Z,99517.41
2022-09-25T08:53:11.387Z,99515.47
2022-09-25T08:56:00.649Z,99520.66
2022-09-25T08:58:32.538Z,99508.47
2022-09-25T09:01:07.535Z,99511.44
2022-09-25T09:03:50.917Z,99517.47
2022-09-25T09:06:19.038Z,99499.19
2022-09-25T09:08:55.355Z,99485.75
2022-09-25T09:11:31.072Z,99486.41
2022-09-25T09:14:16.094Z,99487.00
2022-09-25T09:17:00.954Z,99477.25
2022-09-25T09:19:29.069Z,99476.50
2022-09-25T09:22:26.978Z,99468.50
2022-09-25T09:25:14.774Z,99463.75
2022-09-25T09:28:16.437Z,99472.16
2022-09-25T09:30:46.355Z,99470.16
2022-09-25T09:33:51.336Z,99467.56
2022-09-25T09:36:43.058Z,99464.75
2022-09-25T09:39:35.283Z,99455.13
2022-09-25T09:42:22.008Z,99447.91
2022-09-25T09:44:58.771Z,99459.13
2022-09-25T09:48:02.440Z,99457.19
2022-09-25T09:50:43.360Z,99457.88
2022-09-25T09:53:44.242Z,99448.75
2022-09-25T09:56:26.018Z,99449.69
2022-09-25T09:58:57.292Z,99443.75
2022-09-25T10:01:40.932Z,99434.13
2022-09-25T10:04:18.291Z,99430.47
2022-09-25T10:06:54.001Z,99438.25
2022-09-25T10:09:21.118Z,99432.44
2022-09-25T10:11:54.203Z,99424.19
2022-09-25T10:14:25.093Z,99422.25
2022-09-25T10:16:53.984Z,99419.75
2022-09-25T10:19:25.261Z,99426.25
2022-09-25T10:22:03.419Z,99406.66
2022-09-25T10:24:51.444Z,99416.00
2022-09-25T10:27:28.534Z,99414.41
2022-09-25T10:30:11.260Z,99420.88
2022-09-25T10:33:01.912Z,99400.56
2022-09-25T10:35:42.318Z,99391.00
2022-09-25T10:38:48.338Z,99399.47
2022-09-25T10:41:25.779Z,99397.88
2022-09-25T10:44:03.222Z,99393.50
2022-09-25T10:46:54.425Z,99384.38
2022-09-25T10:49:42.837Z,99389.13
2022-09-25T10:52:12.220Z,99390.84
2022-09-25T10:54:44.762Z,99393.72
2022-09-25T11:00:04.115Z,99373.66
2022-09-25T11:02:45.789Z,99376.16
2022-09-25T11:05:36.023Z,99371.78
2022-09-25T11:08:06.657Z,99366.19
2022-09-25T11:12:18.754Z,99355.34
2022-09-25T11:14:59.160Z,99364.97
2022-09-25T11:17:43.346Z,99351.75
2022-09-25T11:20:16.733Z,99362.97
2022-09-25T11:22:57.223Z,99351.34
2022-09-25T11:25:49.556Z,99365.41
2022-09-25T11:28:25.364Z,99359.78
2022-09-25T11:31:02.975Z,99363.84
2022-09-25T11:33:43.251Z,99349.78
2022-09-25T11:36:26.203Z,99353.41
2022-09-25T11:39:30.313Z,99352.56
2022-09-25T11:42:05.469Z,99350.59
2022-09-25T11:45:08.327Z,99343.75
2022-09-25T11:47:43.512Z,99343.34
2022-09-25T11:50:16.471Z,99330.91
2022-09-25T11:53:07.217Z,99339.72
2022-09-25T11:55:52.677Z,99340.13
2022-09-25T11:58:38.545Z,99336.91
2022-09-25T12:01:27.201Z,99335.69
2022-09-25T12:04:41.720Z,99339.72
2022-09-25T12:07:30.431Z,99314.44
2022-09-25T12:10:15.061Z,99320.06
2022-09-25T12:12:59.229Z,99325.28
2022-09-25T12:15:47.097Z,99320.06
2022-09-25T12:18:24.190Z,99318.47
2022-09-25T12:21:15.261Z,99319.69
2022-09-25T12:23:52.468Z,99312.47
2022-09-25T12:26:24.331Z,99310.88
2022-09-25T12:28:57.481Z,99310.88
2022-09-25T12:31:58.727Z,99305.25
2022-09-25T12:34:28.859Z,99307.66
2022-09-25T12:37:15.277Z,99304.41
2022-09-25T12:39:52.389Z,99294.75
2022-09-25T12:42:27.436Z,99280.72
2022-09-25T12:45:13.313Z,99293.13
2022-09-25T12:47:55.759Z,99297.94
2022-09-25T12:50:30.661Z,99287.06
2022-09-25T12:53:32.720Z,99289.06
2022-09-25T12:56:13.400Z,99269.00
2022-09-25T12:58:59.482Z,99279.81
2022-09-25T13:01:47.599Z,99265.31
2022-09-25T13:04:40.499Z,99266.53
2022-09-25T13:07:38.420Z,99272.97
2022-09-25T13:10:32.749Z,99267.34
2022-09-25T13:13:08.143Z,99262.53
2022-09-25T13:15:40.469Z,99259.31
2022-09-25T13:18:16.841Z,99236.06
2022-09-25T13:21:37.146Z,99258.56
2022-09-25T13:24:09.479Z,99261.78
2022-09-25T13:26:53.784Z,99258.91
2022-09-25T13:29:28.865Z,99262.09
2022-09-25T13:32:07.182Z,99250.88
2022-09-25T13:34:38.939Z,99252.47
2022-09-25T13:37:09.721Z,99248.88
2022-09-25T13:40:05.068Z,99248.47
2022-09-25T13:42:42.198Z,99246.84
2022-09-25T13:45:32.789Z,99254.47
2022-09-25T13:48:10.495Z,99250.06
2022-09-25T13:50:39.866Z,99246.47
2022-09-25T13:53:20.730Z,99250.47
2022-09-25T13:55:50.667Z,99245.25
2022-09-25T13:58:19.972Z,99243.25
2022-09-25T14:00:50.436Z,99250.47
2022-09-25T14:03:37.244Z,99239.25
2022-09-25T14:06:05.446Z,99240.47
2022-09-25T14:08:34.684Z,99244.44
2022-09-25T14:11:07.736Z,99237.66
2022-09-25T14:13:35.609Z,99234.03
2022-09-25T14:16:09.238Z,99238.06
2022-09-25T14:18:40.994Z,99232.88
2022-09-25T14:21:10.058Z,99234.50
2022-09-25T14:23:52.498Z,99232.09
2022-09-25T14:26:28.203Z,99219.25
2022-09-25T14:29:00.199Z,99224.47
2022-09-25T14:31:33.451Z,99222.84
2022-09-25T14:34:26.299Z,99218.44
2022-09-25T14:37:06.029Z,99212.03
2022-09-25T14:39:52.089Z,99210.47
2022-09-25T14:42:41.469Z,99216.53
2022-09-25T14:45:42.653Z,99219.38
2022-09-25T14:48:25.074Z,99216.19
2022-09-25T14:50:56.113Z,99214.56
2022-09-25T14:53:32.753Z,99210.56
2022-09-25T14:56:03.102Z,99208.56
2022-09-25T14:58:33.031Z,99217.00
2022-09-25T15:01:23.503Z,99211.78
2022-09-25T15:03:51.334Z,99208.59
2022-09-25T15:06:34.209Z,99209.00
2022-09-25T15:09:03.297Z,99215.41
2022-09-25T15:11:43.338Z,99213.44
2022-09-25T15:14:16.682Z,99209.03
2022-09-25T15:17:02.918Z,99214.22
2022-09-25T15:19:45.674Z,99208.56
2022-09-25T15:22:19.596Z,99207.75
2022-09-25T15:24:54.298Z,99207.34
2022-09-25T15:27:23.419Z,99209.34
2022-09-25T15:29:51.700Z,99188.88
2022-09-25T15:32:25.651Z,99204.09
2022-09-25T15:35:17.640Z,99199.28
2022-09-25T15:37:45.823Z,99202.44
2022-09-25T15:40:18.564Z,99210.38
2022-09-25T15:42:47.974Z,99197.50
2022-09-25T15:45:44.448Z,99205.41
2022-09-25T15:48:36.270Z,99211.75
2022-09-25T15:51:21.712Z,99201.97
2022-09-25T15:53:54.886Z,99203.47
2022-09-25T15:56:51.286Z,99203.34
2022-09-25T15:59:20.217Z,99221.69
2022-09-25T16:02:07.719Z,99200.41
2022-09-25T16:04:54.456Z,99201.91
2022-09-25T16:07:30.140Z,99203.00
2022-09-25T16:10:17.855Z,99213.63
2022-09-25T16:12:49.498Z,99211.47
2022-09-25T16:15:30.136Z,99193.28
2022-09-25T16:18:05.721Z,99208.00
2022-09-25T16:20:37.989Z,99211.19
2022-09-25T16:23:16.996Z,99199.06
2022-09-25T16:25:45.225Z,99206.16
2022-09-25T16:28:20.466Z,99206.84
2022-09-25T16:30:50.420Z,99210.66
2022-09-25T16:33:27.525Z,99205.78
2022-09-25T16:36:13.110Z,99198.41
2022-09-25T16:39:03.430Z,99203.09
2022-09-25T16:41:31.057Z,99189.75
2022-09-25T16:44:14.900Z,99204.09
2022-09-25T16:47:03.715Z,99198.41
2022-09-25T16:49:33.791Z,99209.88
2022-09-25T16:52:04.512Z,99205.78
2022-09-25T16:54:32.807Z,99205.72
2022-09-25T16:57:02.548Z,99205.66
2022-09-25T16:59:30.478Z,99202.34
2022-09-25T17:02:02.441Z,99200.59
2022-09-25T17:04:31.197Z,99210.09
2022-09-25T17:06:58.670Z,99211.13
2022-09-25T17:09:31.747Z,99212.25
2022-09-25T17:12:05.335Z,99203.25
2022-09-25T17:14:32.554Z,99203.19
2022-09-25T17:17:00.053Z,99207.47
2022-09-25T17:19:27.842Z,99197.34
2022-09-25T17:21:56.218Z,99198.31
2022-09-25T17:24:26.925Z,99204.19
2022-09-25T17:26:55.129Z,99208.88
2022-09-25T17:29:22.707Z,99194.75
2022-09-25T17:31:50.739Z,99203.47
2022-09-25T17:34:21.116Z,99207.78
2022-09-25T17:36:48.201Z,99205.59
2022-09-25T17:39:15.378Z,99209.81
2022-09-25T17:41:43.136Z,99209.28
2022-09-25T17:44:28.901Z,99215.97
2022-09-25T17:46:56.661Z,99210.06
2022-09-25T17:49:25.316Z,99198.25
2022-09-25T17:51:52.942Z,99197.72
2022-09-25T17:54:20.911Z,99204.28
2022-09-25T17:56:48.644Z,99209.00
2022-09-25T17:59:16.045Z,99208.81
2022-09-25T18:01:43.316Z,99202.09
2022-09-25T18:04:36.557Z,99215.28
2022-09-25T18:07:04.008Z,99213.34
2022-09-25T18:09:31.272Z,99212.28
2022-09-25T18:11:58.592Z,99220.16
2022-09-25T18:14:26.183Z,99213.25
2022-09-25T18:16:53.484Z,99214.03
2022-09-25T18:19:40.013Z,99230.25
2022-09-25T18:22:20.809Z,99226.41
2022-09-25T18:24:53.054Z,99211.94
2022-09-25T18:27:20.681Z,99220.63
2022-09-25T18:29:47.712Z,99216.19
2022-09-25T18:32:15.909Z,99221.13
2022-09-25T18:34:43.303Z,99200.72
2022-09-25T18:37:11.255Z,99223.94
2022-09-25T18:39:39.012Z,99227.41
2022-09-25T18:42:06.476Z,99226.97
2022-09-25T18:44:38.534Z,99226.50
2022-09-25T18:47:08.935Z,99221.59
2022-09-25T18:49:38.060Z,99237.41
2022-09-25T18:52:06.439Z,99232.91
2022-09-25T18:54:34.277Z,99228.75
2022-09-25T18:57:01.357Z,99238.72
2022-09-25T18:59:28.427Z,99228.31
2022-09-25T19:01:56.011Z,99227.50
2022-09-25T19:04:23.714Z,99224.16
2022-09-25T19:06:50.962Z,99223.00
2022-09-25T19:09:18.836Z,99232.72
2022-09-25T19:11:46.255Z,99233.75
2022-09-25T19:14:14.997Z,99228.09
2022-09-25T19:16:42.880Z,99227.19
2022-09-25T19:19:11.392Z,99218.41
2022-09-25T19:21:41.678Z,99231.56
2022-09-25T19:24:09.508Z,99234.56
2022-09-25T19:26:37.413Z,99230.19
2022-09-25T19:29:05.406Z,99234.25
2022-09-25T19:31:32.720Z,99245.66
2022-09-25T19:34:02.406Z,99241.03
2022-09-25T19:36:32.383Z,99243.31
2022-09-25T19:39:01.011Z,99243.53
2022-09-25T19:41:34.134Z,99230.53
2022-09-25T19:44:12.763Z,99248.53
2022-09-25T19:46:46.488Z,99240.63
2022-09-25T19:49:16.341Z,99241.78
2022-09-25T19:51:44.470Z,99233.47
2022-09-25T19:54:14.978Z,99234.06
2022-09-25T19:56:42.561Z,99230.25
2022-09-25T19:59:14.298Z,99229.91
2022-09-25T20:01:43.141Z,99224.91
2022-09-25T20:04:17.177Z,99234.09
2022-09-25T20:06:49.472Z,99222.97
2022-09-25T20:09:21.495Z,99230.63
2022-09-25T20:11:50.806Z,99223.81
2022-09-25T20:14:25.798Z,99224.94
2022-09-25T20:16:54.114Z,99227.06
2022-09-25T20:19:30.476Z,99230.38
2022-09-25T20:22:20.111Z,99224.03
2022-09-25T20:24:48.018Z,99211.72
2022-09-25T20:27:17.555Z,99212.53
2022-09-25T20:30:12.864Z,99230.75
2022-09-25T20:33:12.058Z,99222.84
2022-09-25T20:36:10.841Z,99238.50
2022-09-25T20:38:38.030Z,99228.44
2022-09-25T20:41:07.808Z,99227.97
2022-09-25T20:43:35.631Z,99223.09
2022-09-25T20:46:07.184Z,99217.50
2022-09-25T20:48:36.613Z,99237.25
2022-09-25T20:51:05.258Z,99231.25
2022-09-25T20:53:32.815Z,99225.78
2022-09-25T20:56:13.384Z,99222.25
2022-09-25T20:58:41.918Z,99224.38
2022-09-25T21:01:12.779Z,99215.47
2022-09-25T21:03:42.013Z,99180.13
2022-09-25T21:06:13.725Z,99200.69
2022-09-25T21:08:41.281Z,99204.44
2022-09-25T21:11:10.510Z,99208.47
2022-09-25T21:13:39.863Z,99185.13
2022-09-25T21:16:09.981Z,99194.03
2022-09-25T21:18:38.013Z,99202.16
2022-09-25T21:21:08.119Z,99193.56
2022-09-25T21:23:35.389Z,99188.53
2022-09-25T21:26:10.204Z,99144.50
2022-09-25T21:28:39.061Z,99188.06
2022-09-25T21:31:18.222Z,99187.56
2022-09-25T21:33:45.714Z,99183.97
2022-09-25T21:36:15.475Z,99185.94
2022-09-25T21:38:42.740Z,99179.00
2022-09-25T21:41:13.517Z,99181.13
2022-09-25T21:43:41.278Z,99180.66
2022-09-25T21:46:18.464Z,99172.53
2022-09-25T21:49:00.463Z,99178.72
2022-09-25T21:51:31.122Z,99148.59
2022-09-25T21:53:59.295Z,99164.81
2022-09-25T21:56:27.898Z,99165.47
2022-09-25T21:58:56.532Z,99168.69
2022-09-25T22:01:27.177Z,99164.31
2022-09-25T22:03:57.257Z,99158.66
2022-09-25T22:06:31.009Z,99162.53
2022-09-25T22:09:01.916Z,99157.84
2022-09-25T22:11:29.722Z,99169.69
2022-09-25T22:13:58.730Z,99169.34
2022-09-25T22:16:30.479Z,99171.13
2022-09-25T22:19:10.499Z,99166.59
2022-09-25T22:21:38.652Z,99169.66
2022-09-25T22:24:06.124Z,99171.13
2022-09-25T22:26:36.728Z,99167.56
2022-09-25T22:29:04.763Z,99166.09
2022-09-25T22:31:33.800Z,99167.88
2022-09-25T22:34:04.619Z,99156.53
2022-09-25T22:36:33.650Z,99171.13
2022-09-25T22:39:00.599Z,99162.41
2022-09-25T22:41:27.789Z,99178.09
2022-09-25T22:43:55.473Z,99169.50
2022-09-25T22:46:24.452Z,99158.16
2022-09-25T22:48:52.118Z,99163.66
2022-09-25T22:51:24.307Z,99161.75
2022-09-25T22:53:52.375Z,99160.09
2022-09-25T22:56:23.168Z,99165.00
2022-09-25T22:58:53.151Z,99171.31
2022-09-25T23:01:33.737Z,99163.84
2022-09-25T23:04:03.670Z,99149.56
2022-09-25T23:06:32.475Z,99149.06
2022-09-25T23:09:03.440Z,99144.06
2022-09-25T23:11:30.916Z,99144.56
2022-09-25T23:14:03.384Z,99145.03
2022-09-25T23:16:32.297Z,99145.03
2022-09-25T23:19:00.391Z,99149.22
2022-09-25T23:21:29.773Z,99149.25
2022-09-25T23:23:58.559Z,99145.03
2022-09-25T23:26:26.466Z,99144.69
2022-09-25T23:28:54.126Z,99144.38
2022-09-25T23:31:22.142Z,99145.34
2022-09-25T23:33:49.424Z,99138.84
2022-09-25T23:36:20.403Z,99132.69
2022-09-25T23:38:49.479Z,99124.56
2022-09-25T23:41:37.918Z,99129.28
2022-09-25T23:44:08.122Z,99123.78
2022-09-25T23:46:38.469Z,99120.88
2022-09-25T23:49:06.273Z,99124.13
2022-09-25T23:51:33.900Z,99112.28
2022-09-25T23:54:02.093Z,99120.06
2022-09-25T23:56:32.315Z,99114.88
2022-09-25T23:59:03.602Z,99103.53
